Time;durP1;ratioP1;P1;durP2;ratioP2;P2;SDS_P1;SDS_P2;PMS_P1;PMS_P2;Temp;Humidity;BMP_temperature;BMP_pressure;BME280_temperature;BME280_humidity;BME280_pressure;Samples;Min_cycle;Max_cycle;Signal;HPM_P1;HPM_P2
2022/08/15 00:01:06;;;;;;;4.72;4.28;;;;;;;19.16;68.31;94002.69;4173372;28;20152;-66
2022/08/15 00:03:27;;;;;;;7.93;4.38;;;;;;;19.10;68.88;94011.56;4174477;28;20342;-66
2022/08/15 00:05:49;;;;;;;4.47;4.07;;;;;;;19.02;68.84;94010.88;4174137;28;20432;-65
2022/08/15 00:07:55;;;;;;;7.13;4.47;;;;;;;19.05;69.19;94017.56;4156989;28;20045;-65
2022/08/15 00:09:57;;;;;;;5.93;4.70;;;;;;;19.19;69.29;94024.31;4153266;28;20716;-67
2022/08/15 00:11:59;;;;;;;5.72;5.13;;;;;;;19.21;68.99;94026.75;4172886;28;20618;-66
2022/08/15 00:14:15;;;;;;;5.85;5.18;;;;;;;19.27;69.13;94019.69;4173295;28;20049;-67
2022/08/15 00:16:36;;;;;;;6.18;5.07;;;;;;;19.27;69.08;94019.69;4172431;28;20425;-65
2022/08/15 00:18:39;;;;;;;6.35;5.75;;;;;;;19.18;69.09;94021.88;4168501;28;20547;-66
2022/08/15 00:20:42;;;;;;;9.20;5.95;;;;;;;19.17;69.31;94020.25;4172653;28;20143;-67
2022/08/15 00:22:59;;;;;;;6.78;6.07;;;;;;;19.21;69.24;94019.56;4173434;28;20056;-67
2022/08/15 00:25:03;;;;;;;7.88;6.68;;;;;;;19.14;69.70;94020.69;4173586;28;20135;-67
2022/08/15 00:27:07;;;;;;;7.37;6.67;;;;;;;19.09;69.91;94020.59;4170837;28;20059;-64
2022/08/15 00:29:12;;;;;;;8.40;7.20;;;;;;;19.04;70.47;94015.97;4170029;28;20106;-66
2022/08/15 00:31:14;;;;;;;;;;;;;;;19.12;70.14;94013.00;4156704;28;20376;-67
2022/08/15 00:33:16;;;;;;;7.32;6.63;;;;;;;19.23;69.86;94008.72;4175578;28;19994;-66
2022/08/15 00:35:36;;;;;;;9.73;7.22;;;;;;;19.35;69.18;94004.22;4177363;28;20054;-68
2022/08/15 00:37:40;;;;;;;8.15;7.35;;;;;;;19.41;69.13;94010.47;4156706;28;20088;-66
2022/08/15 00:40:02;;;;;;;10.07;7.45;;;;;;;19.48;68.62;94011.16;4183359;28;20125;-67
2022/08/15 00:42:23;;;;;;;7.75;6.90;;;;;;;19.54;68.04;94009.44;4188069;28;20053;-66
2022/08/15 00:44:40;;;;;;;8.82;7.05;;;;;;;19.54;67.93;94004.91;4163825;28;20448;-67
2022/08/15 00:47:05;;;;;;;7.70;7.00;;;;;;;19.41;68.01;94005.16;4164741;28;20060;-66
2022/08/15 00:49:08;;;;;;;7.55;6.30;;;;;;;19.27;68.73;94003.75;4182612;28;20045;-67
2022/08/15 00:51:36;;;;;;;7.30;6.57;;;;;;;19.22;68.63;94002.59;4170171;28;20132;-67
2022/08/15 00:53:41;;;;;;;6.95;6.03;;;;;;;19.11;68.85;94006.03;4184301;28;20048;-67
2022/08/15 00:55:45;;;;;;;7.25;6.53;;;;;;;19.16;69.21;94005.34;4166213;28;20085;-68
2022/08/15 00:57:53;;;;;;;8.13;6.10;;;;;;;19.22;68.50;94007.91;4168558;28;20135;-67
2022/08/15 01:00:11;;;;;;;6.47;5.82;;;;;;;19.28;68.52;94003.53;4185324;28;20066;-66
2022/08/15 01:02:34;;;;;;;7.43;5.88;;;;;;;19.31;68.13;94004.91;4167208;28;20048;-66
2022/08/15 01:04:37;;;;;;;7.10;5.93;;;;;;;19.22;68.35;94002.59;4161197;28;20049;-67
2022/08/15 01:06:45;;;;;;;7.15;6.45;;;;;;;19.23;68.13;93988.28;4182886;28;20045;-66
2022/08/15 01:08:53;;;;;;;7.93;7.03;;;;;;;19.15;68.48;93996.59;4170066;28;20052;-67
2022/08/15 01:10:57;;;;;;;9.23;6.78;;;;;;;19.17;68.44;93994.50;4171230;28;20107;-66
2022/08/15 01:13:06;;;;;;;7.68;6.65;;;;;;;19.17;68.52;93991.84;4169672;28;20110;-66
2022/08/15 01:15:28;;;;;;;7.72;6.57;;;;;;;19.24;68.37;93984.59;4172606;28;20057;-66
2022/08/15 01:17:44;;;;;;;9.05;6.93;;;;;;;19.39;67.96;93983.31;4153892;28;20143;-66
2022/08/15 01:20:02;;;;;;;8.27;7.00;;;;;;;19.46;67.30;93968.06;4173934;28;21108;-66
2022/08/15 01:22:08;;;;;;;8.05;6.47;;;;;;;19.49;66.91;93977.41;4140475;28;20069;-66
2022/08/15 01:24:30;;;;;;;6.93;6.22;;;;;;;19.42;67.03;93980.19;4176457;28;20044;-66
2022/08/15 01:26:52;;;;;;;7.55;6.75;;;;;;;19.29;67.37;93986.53;4178740;28;20059;-67
2022/08/15 01:28:55;;;;;;;8.50;6.55;;;;;;;19.19;67.68;93996.94;4185056;28;20132;-68
2022/08/15 01:31:01;;;;;;;10.00;7.00;;;;;;;18.98;68.25;93998.28;4164280;28;20059;-67
2022/08/15 01:33:06;;;;;;;7.03;6.32;;;;;;;18.86;68.98;94000.91;4168064;28;20053;-67
2022/08/15 01:35:10;;;;;;;8.70;6.88;;;;;;;18.80;69.07;93997.34;4143444;28;20141;-67
2022/08/15 01:37:12;;;;;;;7.50;6.72;;;;;;;18.77;69.62;93997.75;4174364;28;20776;-67
2022/08/15 01:39:24;;;;;;;9.52;6.72;;;;;;;18.55;70.23;93996.66;4160379;28;20069;-67
2022/08/15 01:41:42;;;;;;;9.60;7.30;;;;;;;18.55;70.43;94001.94;4158678;28;20343;-67
2022/08/15 01:44:19;;;;;;;7.97;6.95;;;;;;;18.65;70.24;94002.22;4154303;28;20092;-68
2022/08/15 01:46:43;;;;;;;8.63;7.35;;;;;;;18.77;69.61;94005.69;4161648;28;20103;-67
2022/08/15 01:48:55;;;;;;;8.25;7.40;;;;;;;18.85;69.52;93994.00;4160961;28;20060;-67
2022/08/15 01:51:02;;;;;;;9.90;7.88;;;;;;;18.94;69.01;93991.81;4159147;28;20053;-66
2022/08/15 01:53:10;;;;;;;10.15;7.97;;;;;;;19.06;68.90;93997.13;4166383;28;20073;-67
2022/08/15 01:55:23;;;;;;;8.50;7.60;;;;;;;19.14;68.21;93989.66;4161124;28;20057;-67
2022/08/15 01:57:25;;;;;;;8.95;7.35;;;;;;;19.20;68.09;93986.06;4162237;28;20119;-67
2022/08/15 01:59:27;;;;;;;8.68;7.13;;;;;;;19.28;67.85;93986.78;4156009;28;20145;-66
2022/08/15 02:02:04;;;;;;;9.80;8.15;;;;;;;19.29;67.66;93991.06;4171778;28;20053;-66
2022/08/15 02:04:32;;;;;;;11.18;8.02;;;;;;;19.30;67.42;93982.88;4173011;28;20053;-66
2022/08/15 02:06:37;;;;;;;9.27;8.38;;;;;;;19.33;67.57;93974.44;4167889;28;20049;-70
2022/08/15 02:08:43;;;;;;;11.73;8.77;;;;;;;19.35;67.42;93968.91;4166472;28;20053;-67
2022/08/15 02:10:45;;;;;;;;;;;;;;;19.38;67.25;93963.94;4153233;28;20057;-66
2022/08/15 02:12:49;;;;;;;;;;;;;;;19.39;67.25;93967.41;4159347;28;20047;-66
2022/08/15 02:15:15;;;;;;;10.23;9.13;;;;;;;19.33;67.42;93974.44;4164164;28;19990;-66
2022/08/15 02:17:17;;;;;;;10.57;8.90;;;;;;;19.29;67.43;93973.28;4171022;28;20049;-68
2022/08/15 02:19:19;;;;;;;12.13;9.27;;;;;;;19.23;67.89;93985.63;4178013;28;20491;-66
2022/08/15 02:21:40;;;;;;;11.55;8.65;;;;;;;19.20;67.97;93983.44;4163777;28;20122;-66
2022/08/15 02:23:43;;;;;;;13.35;9.23;;;;;;;19.20;67.76;93986.06;4169797;28;20056;-67
2022/08/15 02:25:51;;;;;;;12.75;9.82;;;;;;;19.15;67.88;93983.31;4176360;28;20625;-67
2022/08/15 02:27:55;;;;;;;12.90;10.18;;;;;;;19.12;68.24;93989.09;4165566;28;20080;-68
2022/08/15 02:30:00;;;;;;;11.57;9.23;;;;;;;19.05;68.35;93993.69;4164587;28;20068;-67
2022/08/15 02:32:08;;;;;;;11.63;9.45;;;;;;;18.95;68.57;93991.59;4169571;28;20048;-68
2022/08/15 02:34:10;;;;;;;11.85;9.88;;;;;;;18.94;68.94;94005.09;4158424;28;21647;-66
2022/08/15 02:36:19;;;;;;;13.70;10.18;;;;;;;18.88;68.85;94001.50;4176561;28;20068;-67
2022/08/15 02:38:32;;;;;;;10.57;9.13;;;;;;;18.89;69.00;94004.97;4172523;28;20049;-66
2022/08/15 02:40:50;;;;;;;11.95;9.63;;;;;;;18.91;69.04;94001.06;4172941;28;20057;-65
2022/08/15 02:42:53;;;;;;;12.23;10.68;;;;;;;18.97;68.84;94015.25;4160014;28;20165;-68
2022/08/15 02:44:55;;;;;;;12.63;10.15;;;;;;;18.97;68.87;94012.59;4152643;28;20156;-66
2022/08/15 02:47:00;;;;;;;12.88;10.25;;;;;;;18.96;68.79;94021.59;4170175;28;20481;-66
2022/08/15 02:49:11;;;;;;;12.88;10.35;;;;;;;18.87;69.23;94028.28;4159991;28;20060;-66
2022/08/15 02:51:15;;;;;;;11.48;10.27;;;;;;;18.85;69.15;94022.38;4153551;28;20085;-67
2022/08/15 02:53:22;;;;;;;11.90;10.70;;;;;;;18.86;69.54;94024.00;4175647;28;20071;-66
2022/08/15 02:55:24;;;;;;;12.18;10.07;;;;;;;18.86;69.22;94029.28;4164730;28;20153;-66
2022/08/15 02:57:34;;;;;;;13.25;11.10;;;;;;;18.78;69.65;94017.19;4176324;28;20591;-66
2022/08/15 02:59:56;;;;;;;12.95;11.25;;;;;;;18.68;70.06;94027.50;4157766;28;20057;-66
2022/08/15 03:01:59;;;;;;;13.95;11.57;;;;;;;18.64;70.24;94024.47;4175402;28;20049;-64
2022/08/15 03:04:01;;;;;;;12.20;10.90;;;;;;;18.76;70.32;94025.31;4175135;28;20048;-66
2022/08/15 03:06:30;;;;;;;12.70;11.38;;;;;;;18.87;69.59;94031.72;4173986;28;20052;-66
2022/08/15 03:08:33;;;;;;;15.73;10.90;;;;;;;18.93;69.33;94032.66;4172793;28;20114;-67
2022/08/15 03:10:37;;;;;;;13.85;12.15;;;;;;;18.89;69.32;94034.97;4161508;28;20087;-65
2022/08/15 03:12:53;;;;;;;12.82;11.45;;;;;;;18.78;69.62;94030.44;4158923;28;20056;-66
2022/08/15 03:14:56;;;;;;;13.85;12.30;;;;;;;18.85;69.55;94035.66;4164323;28;20101;-66
2022/08/15 03:17:03;;;;;;;15.77;11.75;;;;;;;18.80;69.37;94045.09;4175308;28;20630;-67
2022/08/15 03:19:09;;;;;;;15.73;11.73;;;;;;;18.73;69.82;94040.88;4150444;28;20050;-66
2022/08/15 03:21:16;;;;;;;13.10;11.38;;;;;;;18.75;70.02;94044.91;4172729;28;20102;-67
2022/08/15 03:23:21;;;;;;;14.23;11.40;;;;;;;18.68;69.70;94046.06;4162585;28;20065;-66
2022/08/15 03:25:45;;;;;;;12.68;11.38;;;;;;;18.56;69.99;94057.44;4154371;28;20049;-68
2022/08/15 03:27:56;;;;;;;14.13;11.60;;;;;;;18.46;70.69;94066.97;4149648;28;20052;-66
2022/08/15 03:29:58;;;;;;;14.98;12.07;;;;;;;18.43;70.30;94065.53;4169368;28;20057;-66
2022/08/15 03:32:00;;;;;;;13.68;12.20;;;;;;;18.38;70.79;94060.09;4166053;28;20486;-69
2022/08/15 03:34:03;;;;;;;15.50;12.93;;;;;;;18.34;70.85;94069.53;4150586;28;20056;-66
2022/08/15 03:36:06;;;;;;;14.77;13.18;;;;;;;18.38;70.58;94060.91;4170376;28;20278;-65
2022/08/15 03:38:12;;;;;;;14.52;12.68;;;;;;;18.35;70.26;94060.56;4169099;28;20061;-66
2022/08/15 03:40:15;;;;;;;15.85;12.68;;;;;;;18.45;69.64;94066.13;4168656;28;20049;-65
2022/08/15 03:42:17;;;;;;;14.10;12.60;;;;;;;18.51;69.54;94064.44;4164861;28;20045;-66
2022/08/15 03:44:24;;;;;;;16.13;13.63;;;;;;;18.51;69.35;94070.53;4171489;28;20077;-66
2022/08/15 03:46:28;;;;;;;16.25;12.82;;;;;;;18.54;69.46;94062.16;4169050;28;20084;-66
2022/08/15 03:48:40;;;;;;;15.57;13.15;;;;;;;18.63;69.50;94062.66;4166293;28;20057;-66
2022/08/15 03:50:59;;;;;;;17.95;14.00;;;;;;;18.58;69.08;94063.34;4162647;28;20063;-65
2022/08/15 03:53:04;;;;;;;21.50;13.63;;;;;;;18.61;69.61;94070.81;4156907;28;20848;-68
2022/08/15 03:55:07;;;;;;;17.27;14.68;;;;;;;18.63;69.40;94065.31;4174358;28;20064;-65
2022/08/15 03:57:18;;;;;;;16.83;14.48;;;;;;;18.68;69.58;94059.31;4156090;28;20049;-66
2022/08/15 03:59:22;;;;;;;16.33;13.73;;;;;;;18.70;69.58;94073.97;4161907;28;20053;-66
2022/08/15 04:01:28;;;;;;;14.80;13.23;;;;;;;18.80;69.07;94071.63;4171088;28;20123;-64
2022/08/15 04:03:31;;;;;;;14.85;12.98;;;;;;;18.79;69.05;94075.31;4164160;28;20059;-67
2022/08/15 04:05:36;;;;;;;15.38;13.73;;;;;;;18.83;68.97;94070.38;4169471;28;20060;-68
2022/08/15 04:07:41;;;;;;;16.15;14.18;;;;;;;18.76;69.06;94072.28;4163069;28;20288;-67
2022/08/15 04:09:44;;;;;;;16.23;13.87;;;;;;;18.83;69.04;94078.34;4160885;28;20214;-66
2022/08/15 04:11:48;;;;;;;15.48;13.88;;;;;;;18.89;69.00;94076.63;4172177;28;20045;-66
2022/08/15 04:13:51;;;;;;;18.17;15.30;;;;;;;18.88;68.85;94081.09;4173417;28;20064;-67
2022/08/15 04:15:56;;;;;;;16.02;13.77;;;;;;;18.85;69.27;94084.22;4168925;28;20072;-67
2022/08/15 04:18:20;;;;;;;16.75;14.20;;;;;;;18.83;69.21;94076.47;4172554;28;20570;-66
2022/08/15 04:20:42;;;;;;;19.20;15.25;;;;;;;18.88;69.27;94075.00;4169013;28;20436;-67
2022/08/15 04:22:49;;;;;;;18.30;16.25;;;;;;;18.95;69.05;94068.56;4173206;28;20057;-67
2022/08/15 04:24:59;;;;;;;18.85;15.90;;;;;;;19.01;68.87;94069.50;4170104;28;20067;-66
2022/08/15 04:27:01;;;;;;;20.60;16.48;;;;;;;19.05;68.72;94062.69;4151664;28;20466;-67
2022/08/15 04:29:03;;;;;;;19.33;15.82;;;;;;;19.16;68.47;94059.25;4173765;28;20147;-66
2022/08/15 04:31:15;;;;;;;19.33;15.80;;;;;;;19.22;68.08;94057.53;4173518;28;20045;-68
2022/08/15 04:33:22;;;;;;;19.80;15.95;;;;;;;19.36;67.90;94058.13;4174503;28;20459;-65
2022/08/15 04:35:47;;;;;;;18.83;15.10;;;;;;;19.50;67.53;94051.56;4171880;28;20049;-67
2022/08/15 04:37:49;;;;;;;17.58;15.02;;;;;;;19.60;67.13;94056.34;4154958;28;20099;-65
2022/08/15 04:39:51;;;;;;;17.60;15.50;;;;;;;19.65;66.69;94056.44;4176047;28;20080;-67
2022/08/15 04:41:54;;;;;;;21.00;16.48;;;;;;;19.61;66.57;94053.44;4175516;28;20045;-67
2022/08/15 04:43:56;;;;;;;19.92;16.90;;;;;;;19.68;66.73;94057.81;4170762;28;20057;-68
2022/08/15 04:45:58;;;;;;;21.52;18.13;;;;;;;19.65;66.91;94062.56;4174612;28;20107;-68
2022/08/15 04:48:04;;;;;;;19.00;16.63;;;;;;;19.67;67.04;94056.22;4173293;28;20280;-66
2022/08/15 04:50:26;;;;;;;24.30;18.20;;;;;;;19.66;67.17;94066.03;4159288;28;20057;-67
2022/08/15 04:52:29;;;;;;;21.33;19.00;;;;;;;19.75;67.07;94070.00;4172544;28;20053;-67
2022/08/15 04:54:34;;;;;;;19.37;16.87;;;;;;;19.76;66.75;94068.13;4173593;28;20491;-66
2022/08/15 04:56:36;;;;;;;22.58;18.23;;;;;;;19.81;66.46;94070.91;4173031;28;20281;-66
2022/08/15 04:58:52;;;;;;;22.42;17.52;;;;;;;19.86;66.38;94065.72;4169774;28;20159;-67
2022/08/15 05:01:09;;;;;;;20.55;17.98;;;;;;;19.91;66.22;94073.78;4166473;28;20140;-65
2022/08/15 05:03:16;;;;;;;24.98;18.35;;;;;;;19.91;66.17;94070.34;4155297;28;20465;-66
2022/08/15 05:05:19;;;;;;;24.10;18.65;;;;;;;19.96;66.15;94076.59;4170033;28;20385;-66
2022/08/15 05:07:21;;;;;;;21.60;17.85;;;;;;;20.04;65.98;94073.56;4173999;28;20136;-68
2022/08/15 05:09:32;;;;;;;23.25;17.98;;;;;;;20.13;65.68;94068.69;4174617;28;20377;-67
2022/08/15 05:11:53;;;;;;;25.70;18.67;;;;;;;20.18;65.93;94065.34;4169067;28;20481;-67
2022/08/15 05:14:10;;;;;;;27.75;19.75;;;;;;;20.18;65.66;94060.81;4170804;28;20566;-66
2022/08/15 05:16:34;;;;;;;22.88;18.77;;;;;;;20.26;65.73;94054.31;4152944;28;20061;-66
2022/08/15 05:18:41;;;;;;;25.10;19.58;;;;;;;20.32;65.40;94065.88;4173801;28;20044;-65
2022/08/15 05:20:47;;;;;;;25.20;19.30;;;;;;;20.34;65.43;94061.94;4159510;28;20060;-66
2022/08/15 05:23:04;;;;;;;23.35;19.70;;;;;;;20.33;65.28;94059.53;4160176;28;20136;-66
2022/08/15 05:25:07;;;;;;;25.80;19.67;;;;;;;20.36;65.50;94059.84;4167207;28;20177;-67
2022/08/15 05:27:13;;;;;;;25.48;20.63;;;;;;;20.33;65.25;94051.56;4177372;28;20045;-67
2022/08/15 05:29:20;;;;;;;21.52;18.98;;;;;;;20.30;65.61;94052.00;4177083;28;20432;-66
2022/08/15 05:31:24;;;;;;;21.57;19.10;;;;;;;20.35;65.44;94060.91;4174987;28;20152;-67
2022/08/15 05:33:33;;;;;;;23.00;19.52;;;;;;;20.46;65.16;94051.28;4176398;28;20049;-69
2022/08/15 05:35:58;;;;;;;22.50;19.02;;;;;;;20.33;65.46;94057.69;4174189;28;20465;-69
2022/08/15 05:38:03;;;;;;;24.20;19.67;;;;;;;20.38;65.41;94057.78;4173169;28;20072;-69
2022/08/15 05:40:25;;;;;;;24.30;20.30;;;;;;;20.53;65.15;94053.81;4157811;28;20076;-67
2022/08/15 05:42:31;;;;;;;24.05;20.08;;;;;;;20.29;65.83;94083.13;4154562;28;20056;-65
2022/08/15 05:44:50;;;;;;;23.30;19.73;;;;;;;20.17;66.15;94071.69;4152070;28;20060;-70
2022/08/15 05:47:07;;;;;;;26.15;20.98;;;;;;;20.13;66.29;94070.53;4152606;28;20052;-68
2022/08/15 05:49:40;;;;;;;25.20;19.58;;;;;;;20.18;66.20;94070.66;4147462;28;20100;-68
2022/08/15 05:52:04;;;;;;;22.98;20.48;;;;;;;20.16;66.02;94070.91;4144768;28;20192;-65
2022/08/15 05:54:23;;;;;;;23.92;19.88;;;;;;;20.21;66.18;94078.16;4164724;28;20128;-67
2022/08/15 05:56:55;;;;;;;26.25;20.45;;;;;;;20.13;66.43;94078.50;4161526;28;20467;-67
2022/08/15 05:59:03;;;;;;;25.10;20.20;;;;;;;20.14;66.61;94078.28;4139815;28;20385;-66
2022/08/15 06:01:25;;;;;;;25.42;20.65;;;;;;;19.87;67.05;94083.28;4158950;28;20077;-68
2022/08/15 06:03:28;;;;;;;24.38;20.40;;;;;;;19.24;69.04;94085.50;4174038;28;20059;-66
2022/08/15 06:05:45;;;;;;;28.02;21.58;;;;;;;19.21;69.60;94071.88;4158328;28;20049;-67
2022/08/15 06:07:49;;;;;;;28.65;22.33;;;;;;;19.31;69.37;94073.97;4171277;28;20055;-66
2022/08/15 06:10:08;;;;;;;28.00;22.27;;;;;;;19.14;69.91;94077.25;4176174;28;20349;-68
2022/08/15 06:12:39;;;;;;;32.00;22.77;;;;;;;19.13;69.82;94078.31;4147483;28;20049;-67
2022/08/15 06:14:44;;;;;;;29.63;23.55;;;;;;;19.39;69.33;94085.06;4154873;28;20049;-67
2022/08/15 06:16:53;;;;;;;32.75;22.70;;;;;;;19.56;68.52;94082.53;4130626;28;20056;-68
2022/08/15 06:19:02;;;;;;;27.10;21.92;;;;;;;19.52;68.68;94080.56;4156498;28;20350;-70
2022/08/15 06:21:15;;;;;;;25.95;22.23;;;;;;;19.50;68.44;94075.47;4177258;28;20433;-69
2022/08/15 06:23:48;;;;;;;27.83;22.67;;;;;;;19.65;68.11;94065.22;4174453;28;20044;-67
2022/08/15 06:26:21;;;;;;;27.30;21.27;;;;;;;19.73;68.18;94072.06;4166503;28;20049;-66
2022/08/15 06:28:36;;;;;;;24.40;21.15;;;;;;;19.86;67.72;94075.56;4152924;28;20060;-67
2022/08/15 06:31:31;;;;;;;30.73;22.33;;;;;;;19.70;68.33;94066.41;4173483;28;20192;-67
2022/08/15 06:33:50;;;;;;;29.75;21.70;;;;;;;19.51;69.57;94082.44;4158052;28;20049;-68
2022/08/15 06:36:27;;;;;;;34.65;22.10;;;;;;;19.76;68.99;94076.91;4175473;28;20056;-67
2022/08/15 06:38:48;;;;;;;26.75;21.02;;;;;;;20.06;67.47;94083.97;4157983;28;20092;-66
2022/08/15 06:41:07;;;;;;;27.85;20.65;;;;;;;20.16;66.62;94078.06;4159312;28;20055;-68
2022/08/15 06:43:12;;;;;;;23.40;20.23;;;;;;;20.23;65.99;94071.56;4160742;28;20068;-66
2022/08/15 06:45:14;;;;;;;;;;;;;;;20.40;65.69;94071.66;4177873;28;20487;-67
2022/08/15 06:47:19;;;;;;;27.48;21.73;;;;;;;20.32;65.45;94090.63;4177556;28;19928;-68
2022/08/15 06:49:22;;;;;;;24.92;22.10;;;;;;;20.00;66.53;94088.38;4145630;28;20058;-67
2022/08/15 06:51:25;;;;;;;26.80;22.40;;;;;;;20.08;66.54;94083.75;4168087;28;20123;-67
2022/08/15 06:53:56;;;;;;;27.38;21.92;;;;;;;20.15;66.59;94090.53;4162961;28;20122;-68
2022/08/15 06:56:17;;;;;;;25.85;22.30;;;;;;;20.32;66.45;94084.50;4162108;28;20053;-68
2022/08/15 06:58:49;;;;;;;27.98;22.38;;;;;;;20.33;65.61;94097.56;4174734;28;20449;-66
2022/08/15 07:01:02;;;;;;;26.20;21.70;;;;;;;20.24;65.81;94098.97;4166045;28;20422;-67
2022/08/15 07:03:23;;;;;;;26.80;22.45;;;;;;;20.20;65.98;94097.84;4158189;28;20045;-66
2022/08/15 07:05:55;;;;;;;27.10;21.83;;;;;;;20.24;66.21;94098.97;4175304;28;20045;-69
2022/08/15 07:08:16;;;;;;;28.13;22.90;;;;;;;20.36;66.07;94101.63;4174553;28;20630;-67
2022/08/15 07:10:27;;;;;;;28.55;22.02;;;;;;;20.51;65.45;94096.59;4166512;28;20124;-67
2022/08/15 07:12:50;;;;;;;33.22;23.10;;;;;;;20.69;64.99;94093.00;4156232;28;20118;-67
2022/08/15 07:15:20;;;;;;;28.48;22.35;;;;;;;20.80;64.51;94091.34;4173868;28;20489;-67
2022/08/15 07:17:29;;;;;;;30.20;22.48;;;;;;;20.80;64.42;94088.66;4172354;28;20048;-67
2022/08/15 07:19:45;;;;;;;27.83;22.05;;;;;;;20.79;64.42;94087.88;4175163;28;20049;-66
2022/08/15 07:21:58;;;;;;;31.73;23.08;;;;;;;20.99;64.22;94089.28;4173175;28;20449;-67
2022/08/15 07:24:06;;;;;;;30.80;23.13;;;;;;;21.19;64.04;94089.69;4172811;28;20049;-75
2022/08/15 07:26:30;;;;;;;25.90;21.48;;;;;;;21.42;62.78;94082.63;4172921;28;20543;-68
2022/08/15 07:28:34;;;;;;;27.77;22.30;;;;;;;21.50;62.53;94090.22;4156783;28;20056;-66
2022/08/15 07:30:48;;;;;;;24.02;21.00;;;;;;;21.61;61.81;94080.53;4170114;28;20407;-66
2022/08/15 07:32:56;;;;;;;25.52;21.88;;;;;;;21.68;61.56;94087.31;4153945;28;20125;-67
2022/08/15 07:35:04;;;;;;;22.95;20.38;;;;;;;21.69;61.69;94093.47;4156376;28;20061;-66
2022/08/15 07:37:17;;;;;;;25.63;21.77;;;;;;;21.66;61.56;94091.25;4168808;28;20098;-69
2022/08/15 07:39:27;;;;;;;24.52;20.67;;;;;;;21.61;62.37;94091.19;4158120;28;20112;-66
2022/08/15 07:41:40;;;;;;;24.77;20.95;;;;;;;21.55;62.51;94094.81;4161264;28;20148;-66
2022/08/15 07:44:19;;;;;;;23.88;20.40;;;;;;;21.31;63.37;94097.59;4172409;28;20492;-67
2022/08/15 07:46:40;;;;;;;25.45;20.58;;;;;;;21.35;63.10;94097.94;4170631;28;20122;-66
2022/08/15 07:49:07;;;;;;;21.80;19.10;;;;;;;21.57;62.24;94104.19;4168834;28;20124;-66
2022/08/15 07:51:14;;;;;;;24.70;20.95;;;;;;;21.78;61.66;94112.50;4174362;28;20051;-66
2022/08/15 07:53:23;;;;;;;23.02;20.45;;;;;;;21.91;61.15;94106.84;4169941;28;20483;-65
2022/08/15 07:55:25;;;;;;;23.10;20.10;;;;;;;21.96;61.04;94106.13;4156453;28;20092;-66
2022/08/15 07:58:14;;;;;;;20.75;18.40;;;;;;;22.26;60.42;94103.09;4170091;28;20436;-67
2022/08/15 08:00:36;;;;;;;24.65;19.17;;;;;;;22.52;59.44;94106.94;4170576;28;20056;-65
2022/08/15 08:02:53;;;;;;;21.38;19.08;;;;;;;22.76;58.99;94110.16;4168272;28;20045;-66
2022/08/15 08:05:00;;;;;;;20.50;18.30;;;;;;;22.85;57.91;94106.00;4176440;28;20064;-68
2022/08/15 08:07:19;;;;;;;25.65;20.15;;;;;;;22.78;58.14;94115.22;4175382;28;20152;-66
2022/08/15 08:10:11;;;;;;;22.75;18.75;;;;;;;22.86;58.18;94112.13;4158822;28;20053;-66
2022/08/15 08:12:34;;;;;;;21.80;19.30;;;;;;;23.08;57.46;94120.97;4145256;28;20413;-68
2022/08/15 08:15:21;;;;;;;20.40;18.13;;;;;;;22.90;58.07;94122.06;4161584;28;20130;-67
2022/08/15 08:17:55;;;;;;;21.42;18.60;;;;;;;22.69;58.47;94125.53;4178944;28;20126;-67
2022/08/15 08:20:18;;;;;;;25.08;18.73;;;;;;;22.40;59.43;94122.25;4175415;28;20049;-67
2022/08/15 08:22:28;;;;;;;21.65;18.70;;;;;;;22.27;60.74;94118.06;4160460;28;20064;-67
2022/08/15 08:24:40;;;;;;;19.23;17.17;;;;;;;22.50;58.83;94114.38;4152660;28;20054;-70
2022/08/15 08:26:55;;;;;;;19.80;17.70;;;;;;;22.85;58.48;94107.84;4140777;28;20061;-68
2022/08/15 08:29:21;;;;;;;21.33;19.13;;;;;;;23.08;58.37;94114.81;4143797;28;20054;-68
2022/08/15 08:31:47;;;;;;;24.60;19.67;;;;;;;23.20;57.83;94115.47;4162915;28;20383;-68
2022/08/15 08:34:17;;;;;;;20.02;17.88;;;;;;;22.64;58.96;94115.63;4151925;28;20069;-68
2022/08/15 08:36:45;;;;;;;22.20;18.27;;;;;;;22.55;59.65;94116.31;4164227;28;20083;-68
2022/08/15 08:39:18;;;;;;;21.83;18.40;;;;;;;22.48;59.68;94114.63;4173852;28;20076;-68
2022/08/15 08:41:52;;;;;;;20.35;18.20;;;;;;;22.62;59.21;94116.91;4138138;28;20158;-67
2022/08/15 08:44:28;;;;;;;20.65;18.58;;;;;;;22.88;58.44;94118.03;4093703;28;20501;-67
2022/08/15 08:46:53;;;;;;;21.33;18.67;;;;;;;22.99;58.06;94117.09;4148500;28;20061;-67
2022/08/15 08:49:07;;;;;;;23.40;20.13;;;;;;;23.07;57.25;94114.00;4172869;28;20141;-69
2022/08/15 08:51:21;;;;;;;22.50;18.30;;;;;;;23.02;56.97;94110.50;4162401;28;20584;-68
2022/08/15 08:53:39;;;;;;;22.05;18.83;;;;;;;23.26;56.94;94098.44;4159099;28;20053;-68
2022/08/15 08:55:55;;;;;;;18.38;16.48;;;;;;;23.55;56.71;94098.16;4176756;28;20048;-67
2022/08/15 08:58:04;;;;;;;20.42;18.23;;;;;;;23.54;56.75;94098.44;4153607;28;20057;-68
2022/08/15 09:00:14;;;;;;;20.27;18.17;;;;;;;23.51;56.56;94102.38;4173648;28;20053;-67
2022/08/15 09:02:34;;;;;;;21.58;19.15;;;;;;;23.66;55.67;94102.53;4165706;28;20283;-66
2022/08/15 09:04:58;;;;;;;19.85;17.55;;;;;;;23.84;55.21;94108.59;4164772;28;20098;-69
2022/08/15 09:07:03;;;;;;;20.48;18.10;;;;;;;23.77;54.33;94110.66;4168308;28;20152;-69
2022/08/15 09:09:34;;;;;;;20.75;17.73;;;;;;;23.88;54.64;94102.47;4166952;28;20045;-68
2022/08/15 09:11:43;;;;;;;18.75;16.75;;;;;;;24.09;52.97;94092.72;4151827;28;20041;-67
2022/08/15 09:13:47;;;;;;;20.05;17.98;;;;;;;24.04;53.77;94073.94;4170122;28;20571;-70
2022/08/15 09:16:00;;;;;;;20.20;18.10;;;;;;;24.28;53.48;94081.56;4153257;28;20163;-67
2022/08/15 09:18:10;;;;;;;19.55;17.45;;;;;;;24.23;52.65;94077.00;4167304;28;20049;-68
2022/08/15 09:20:33;;;;;;;19.17;17.27;;;;;;;24.14;53.10;94083.13;4174824;28;20138;-68
2022/08/15 09:22:36;;;;;;;;;;;;;;;24.09;53.72;94082.03;4177714;28;20052;-67
2022/08/15 09:24:39;;;;;;;22.98;17.50;;;;;;;24.10;53.78;94080.16;4177949;28;19921;-67
2022/08/15 09:27:22;;;;;;;20.35;18.25;;;;;;;24.11;53.78;94089.78;4146357;28;20133;-69
2022/08/15 09:29:31;;;;;;;19.58;17.48;;;;;;;24.08;54.19;94096.44;4149951;28;20081;-67
2022/08/15 09:31:35;;;;;;;19.50;16.85;;;;;;;24.12;53.93;94089.53;4153475;28;20465;-70
2022/08/15 09:34:21;;;;;;;20.45;17.55;;;;;;;23.84;54.19;94087.19;4160515;28;20053;-68
2022/08/15 09:37:19;;;;;;;17.85;15.98;;;;;;;23.90;54.57;94080.81;4126469;28;20107;-68
2022/08/15 09:39:24;;;;;;;20.20;17.63;;;;;;;24.01;54.48;94085.16;4158326;28;20444;-66
2022/08/15 09:42:00;;;;;;;18.25;15.57;;;;;;;23.92;54.08;94092.06;4162518;28;20493;-68
2022/08/15 09:44:27;;;;;;;16.70;15.00;;;;;;;24.20;52.92;94080.22;4175084;28;20091;-66
2022/08/15 09:47:17;;;;;;;19.88;16.08;;;;;;;24.21;53.87;94083.69;4151232;28;20112;-68
2022/08/15 09:49:35;;;;;;;18.60;16.13;;;;;;;24.61;52.74;94079.63;4149727;28;20053;-67
2022/08/15 09:51:48;;;;;;;17.85;15.95;;;;;;;24.78;52.85;94077.56;4138620;28;20042;-68
2022/08/15 09:54:05;;;;;;;17.33;15.52;;;;;;;24.90;51.92;94078.13;4156564;28;20381;-65
2022/08/15 09:56:30;;;;;;;16.83;15.13;;;;;;;24.62;53.00;94079.38;4150695;28;20124;-67
2022/08/15 09:58:51;;;;;;;18.17;16.23;;;;;;;24.60;52.46;94072.66;4141354;28;20057;-66
2022/08/15 10:01:07;;;;;;;19.00;16.02;;;;;;;24.82;52.24;94078.63;4158508;28;20060;-67
2022/08/15 10:03:26;;;;;;;16.65;14.93;;;;;;;24.81;51.88;94081.59;4153055;28;20049;-68
2022/08/15 10:05:59;;;;;;;18.42;15.55;;;;;;;24.57;53.01;94078.56;4154782;28;20053;-69
2022/08/15 10:08:53;;;;;;;17.30;15.40;;;;;;;24.84;52.31;94078.38;4151343;28;20054;-66
2022/08/15 10:11:12;;;;;;;17.40;15.43;;;;;;;25.07;51.87;94074.41;4156530;28;20073;-66
2022/08/15 10:13:32;;;;;;;17.02;15.32;;;;;;;25.27;51.33;94073.69;4177171;28;20469;-66
2022/08/15 10:15:41;;;;;;;16.73;15.02;;;;;;;25.16;50.90;94067.47;4149406;28;20057;-71
2022/08/15 10:17:44;;;;;;;16.10;14.60;;;;;;;25.14;50.98;94059.72;4159385;28;20544;-67
2022/08/15 10:20:21;;;;;;;16.75;14.95;;;;;;;25.34;50.76;94069.69;4159644;28;20157;-67